sensor_id;sensor_type;location;lat;lon;timestamp;P1;durP1;ratioP1;P2;durP2;ratioP2
12756;SDS011;31601;48.042;12.240;2023-02-12T00:00:47;12.77;;;9.00;;
12756;SDS011;31601;48.042;12.240;2023-02-12T00:03:14;13.90;;;8.73;;
12756;SDS011;31601;48.042;12.240;2023-02-12T00:05:42;12.60;;;9.30;;
12756;SDS011;31601;48.042;12.240;2023-02-12T00:08:09;16.13;;;8.93;;
12756;SDS011;31601;48.042;12.240;2023-02-12T00:10:38;13.23;;;8.87;;
12756;SDS011;31601;48.042;12.240;2023-02-12T00:13:06;12.07;;;8.20;;
12756;SDS011;31601;48.042;12.240;2023-02-12T00:15:33;14.77;;;8.80;;
12756;SDS011;31601;48.042;12.240;2023-02-12T00:17:59;14.00;;;8.90;;
12756;SDS011;31601;48.042;12.240;2023-02-12T00:20:26;15.70;;;9.50;;
12756;SDS011;31601;48.042;12.240;2023-02-12T00:22:54;14.57;;;9.40;;
12756;SDS011;31601;48.042;12.240;2023-02-12T00:25:20;15.53;;;9.70;;
12756;SDS011;31601;48.042;12.240;2023-02-12T00:27:46;11.67;;;8.73;;
12756;SDS011;31601;48.042;12.240;2023-02-12T00:30:13;13.07;;;8.27;;
12756;SDS011;31601;48.042;12.240;2023-02-12T00:32:40;13.87;;;9.03;;
12756;SDS011;31601;48.042;12.240;2023-02-12T00:35:06;14.97;;;8.73;;
12756;SDS011;31601;48.042;12.240;2023-02-12T00:37:33;13.63;;;8.60;;
12756;SDS011;31601;48.042;12.240;2023-02-12T00:40:00;19.23;;;9.50;;
12756;SDS011;31601;48.042;12.240;2023-02-12T00:42:27;15.10;;;9.33;;
12756;SDS011;31601;48.042;12.240;2023-02-12T00:44:53;14.33;;;8.70;;
12756;SDS011;31601;48.042;12.240;2023-02-12T00:47:20;12.57;;;8.80;;
12756;SDS011;31601;48.042;12.240;2023-02-12T00:49:46;11.13;;;8.67;;
12756;SDS011;31601;48.042;12.240;2023-02-12T00:52:12;16.33;;;9.40;;
12756;SDS011;31601;48.042;12.240;2023-02-12T00:54:39;13.50;;;9.47;;
12756;SDS011;31601;48.042;12.240;2023-02-12T00:57:07;13.93;;;9.10;;
12756;SDS011;31601;48.042;12.240;2023-02-12T00:59:33;14.77;;;9.17;;
12756;SDS011;31601;48.042;12.240;2023-02-12T01:02:01;13.53;;;9.13;;
12756;SDS011;31601;48.042;12.240;2023-02-12T01:04:28;13.30;;;9.17;;
12756;SDS011;31601;48.042;12.240;2023-02-12T01:06:54;11.43;;;8.87;;
12756;SDS011;31601;48.042;12.240;2023-02-12T01:09:21;15.03;;;8.63;;
12756;SDS011;31601;48.042;12.240;2023-02-12T01:11:47;13.60;;;9.17;;
12756;SDS011;31601;48.042;12.240;2023-02-12T01:14:15;15.93;;;8.97;;
12756;SDS011;31601;48.042;12.240;2023-02-12T01:16:42;13.80;;;9.50;;
12756;SDS011;31601;48.042;12.240;2023-02-12T01:19:09;16.00;;;9.10;;
12756;SDS011;31601;48.042;12.240;2023-02-12T01:21:36;13.20;;;9.00;;
12756;SDS011;31601;48.042;12.240;2023-02-12T01:24:04;13.00;;;8.87;;
12756;SDS011;31601;48.042;12.240;2023-02-12T01:26:31;16.47;;;10.00;;
12756;SDS011;31601;48.042;12.240;2023-02-12T01:28:58;17.87;;;9.67;;
12756;SDS011;31601;48.042;12.240;2023-02-12T01:31:28;14.90;;;8.73;;
12756;SDS011;31601;48.042;12.240;2023-02-12T01:33:58;13.47;;;9.87;;
12756;SDS011;31601;48.042;12.240;2023-02-12T01:36:25;15.47;;;9.97;;
12756;SDS011;31601;48.042;12.240;2023-02-12T01:38:53;15.03;;;9.53;;
12756;SDS011;31601;48.042;12.240;2023-02-12T01:41:20;15.07;;;8.70;;
12756;SDS011;31601;48.042;12.240;2023-02-12T01:44:05;13.23;;;9.60;;
12756;SDS011;31601;48.042;12.240;2023-02-12T01:46:35;13.40;;;9.50;;
12756;SDS011;31601;48.042;12.240;2023-02-12T01:49:02;13.77;;;9.20;;
12756;SDS011;31601;48.042;12.240;2023-02-12T01:51:33;12.73;;;9.40;;
12756;SDS011;31601;48.042;12.240;2023-02-12T01:54:02;12.93;;;9.13;;
12756;SDS011;31601;48.042;12.240;2023-02-12T01:56:31;13.53;;;8.90;;
12756;SDS011;31601;48.042;12.240;2023-02-12T01:58:58;13.80;;;9.63;;
12756;SDS011;31601;48.042;12.240;2023-02-12T02:01:26;17.37;;;8.67;;
12756;SDS011;31601;48.042;12.240;2023-02-12T02:03:56;13.37;;;9.90;;
12756;SDS011;31601;48.042;12.240;2023-02-12T02:06:26;13.23;;;9.57;;
12756;SDS011;31601;48.042;12.240;2023-02-12T02:08:56;13.33;;;9.03;;
12756;SDS011;31601;48.042;12.240;2023-02-12T02:11:23;14.30;;;9.50;;
12756;SDS011;31601;48.042;12.240;2023-02-12T02:14:07;15.27;;;9.57;;
12756;SDS011;31601;48.042;12.240;2023-02-12T02:16:54;15.07;;;10.10;;
12756;SDS011;31601;48.042;12.240;2023-02-12T02:19:39;15.57;;;10.83;;
12756;SDS011;31601;48.042;12.240;2023-02-12T02:22:33;13.77;;;9.70;;
12756;SDS011;31601;48.042;12.240;2023-02-12T02:28:19;14.07;;;9.47;;
12756;SDS011;31601;48.042;12.240;2023-02-12T02:31:00;15.67;;;9.73;;
12756;SDS011;31601;48.042;12.240;2023-02-12T02:33:34;12.43;;;9.83;;
12756;SDS011;31601;48.042;12.240;2023-02-12T02:36:10;13.87;;;9.77;;
12756;SDS011;31601;48.042;12.240;2023-02-12T02:38:47;17.07;;;10.30;;
12756;SDS011;31601;48.042;12.240;2023-02-12T02:41:18;11.83;;;9.10;;
12756;SDS011;31601;48.042;12.240;2023-02-12T02:43:50;13.83;;;9.37;;
12756;SDS011;31601;48.042;12.240;2023-02-12T02:46:21;12.80;;;9.60;;
12756;SDS011;31601;48.042;12.240;2023-02-12T02:48:55;16.23;;;9.70;;
12756;SDS011;31601;48.042;12.240;2023-02-12T02:51:26;16.63;;;9.73;;
12756;SDS011;31601;48.042;12.240;2023-02-12T02:53:57;13.43;;;9.27;;
12756;SDS011;31601;48.042;12.240;2023-02-12T02:56:29;13.97;;;9.20;;
12756;SDS011;31601;48.042;12.240;2023-02-12T02:59:01;13.17;;;9.37;;
12756;SDS011;31601;48.042;12.240;2023-02-12T03:01:32;15.07;;;9.23;;
12756;SDS011;31601;48.042;12.240;2023-02-12T03:04:04;14.27;;;9.73;;
12756;SDS011;31601;48.042;12.240;2023-02-12T03:06:34;14.10;;;9.57;;
12756;SDS011;31601;48.042;12.240;2023-02-12T03:09:08;14.40;;;9.37;;
12756;SDS011;31601;48.042;12.240;2023-02-12T03:11:40;14.83;;;9.33;;
12756;SDS011;31601;48.042;12.240;2023-02-12T03:14:09;16.57;;;9.83;;
12756;SDS011;31601;48.042;12.240;2023-02-12T03:16:40;15.60;;;9.70;;
12756;SDS011;31601;48.042;12.240;2023-02-12T03:19:13;15.53;;;9.67;;
12756;SDS011;31601;48.042;12.240;2023-02-12T03:21:45;15.03;;;9.70;;
12756;SDS011;31601;48.042;12.240;2023-02-12T03:24:15;14.60;;;9.33;;
12756;SDS011;31601;48.042;12.240;2023-02-12T03:26:48;13.93;;;9.80;;
12756;SDS011;31601;48.042;12.240;2023-02-12T03:29:19;13.37;;;9.10;;
12756;SDS011;31601;48.042;12.240;2023-02-12T03:31:54;16.83;;;9.20;;
12756;SDS011;31601;48.042;12.240;2023-02-12T03:34:29;18.07;;;10.03;;
12756;SDS011;31601;48.042;12.240;2023-02-12T03:37:07;12.60;;;8.83;;
12756;SDS011;31601;48.042;12.240;2023-02-12T03:39:39;13.67;;;9.37;;
12756;SDS011;31601;48.042;12.240;2023-02-12T03:42:15;15.03;;;8.93;;
12756;SDS011;31601;48.042;12.240;2023-02-12T03:44:47;12.80;;;9.07;;
12756;SDS011;31601;48.042;12.240;2023-02-12T03:47:21;12.43;;;9.07;;
12756;SDS011;31601;48.042;12.240;2023-02-12T03:49:52;11.33;;;8.50;;
12756;SDS011;31601;48.042;12.240;2023-02-12T03:52:24;14.27;;;9.10;;
12756;SDS011;31601;48.042;12.240;2023-02-12T03:54:51;14.53;;;9.20;;
12756;SDS011;31601;48.042;12.240;2023-02-12T03:57:18;17.43;;;9.30;;
12756;SDS011;31601;48.042;12.240;2023-02-12T03:59:47;13.70;;;9.33;;
12756;SDS011;31601;48.042;12.240;2023-02-12T04:02:14;13.83;;;9.07;;
12756;SDS011;31601;48.042;12.240;2023-02-12T04:04:44;12.80;;;8.67;;
12756;SDS011;31601;48.042;12.240;2023-02-12T04:07:12;12.70;;;9.60;;
12756;SDS011;31601;48.042;12.240;2023-02-12T04:09:39;13.50;;;9.53;;
12756;SDS011;31601;48.042;12.240;2023-02-12T04:12:12;15.40;;;9.63;;
12756;SDS011;31601;48.042;12.240;2023-02-12T04:14:48;13.37;;;9.63;;
12756;SDS011;31601;48.042;12.240;2023-02-12T04:17:21;12.27;;;9.27;;
12756;SDS011;31601;48.042;12.240;2023-02-12T04:20:00;13.13;;;9.47;;
12756;SDS011;31601;48.042;12.240;2023-02-12T04:22:35;13.23;;;9.10;;
12756;SDS011;31601;48.042;12.240;2023-02-12T04:25:15;11.37;;;8.60;;
12756;SDS011;31601;48.042;12.240;2023-02-12T04:27:47;15.07;;;9.50;;
12756;SDS011;31601;48.042;12.240;2023-02-12T04:30:23;14.87;;;9.43;;
12756;SDS011;31601;48.042;12.240;2023-02-12T04:32:54;13.50;;;8.70;;
12756;SDS011;31601;48.042;12.240;2023-02-12T04:35:27;15.63;;;9.63;;
12756;SDS011;31601;48.042;12.240;2023-02-12T04:37:58;14.47;;;9.07;;
12756;SDS011;31601;48.042;12.240;2023-02-12T04:40:32;14.67;;;9.53;;
12756;SDS011;31601;48.042;12.240;2023-02-12T04:43:00;12.90;;;9.13;;
12756;SDS011;31601;48.042;12.240;2023-02-12T04:45:27;14.47;;;9.47;;
12756;SDS011;31601;48.042;12.240;2023-02-12T04:47:57;14.20;;;9.30;;
12756;SDS011;31601;48.042;12.240;2023-02-12T04:50:26;13.20;;;8.80;;
12756;SDS011;31601;48.042;12.240;2023-02-12T04:52:59;12.90;;;8.53;;
12756;SDS011;31601;48.042;12.240;2023-02-12T04:55:26;13.33;;;8.73;;
12756;SDS011;31601;48.042;12.240;2023-02-12T04:57:52;11.90;;;7.90;;
12756;SDS011;31601;48.042;12.240;2023-02-12T05:00:19;12.70;;;8.33;;
12756;SDS011;31601;48.042;12.240;2023-02-12T05:02:46;13.57;;;8.10;;
12756;SDS011;31601;48.042;12.240;2023-02-12T05:05:12;15.83;;;8.67;;
12756;SDS011;31601;48.042;12.240;2023-02-12T05:07:40;12.63;;;8.23;;
12756;SDS011;31601;48.042;12.240;2023-02-12T05:10:07;10.43;;;7.97;;
12756;SDS011;31601;48.042;12.240;2023-02-12T05:12:34;13.97;;;8.17;;
12756;SDS011;31601;48.042;12.240;2023-02-12T05:15:00;11.37;;;8.30;;
12756;SDS011;31601;48.042;12.240;2023-02-12T05:17:27;11.77;;;7.50;;
12756;SDS011;31601;48.042;12.240;2023-02-12T05:19:53;9.73;;;7.67;;
12756;SDS011;31601;48.042;12.240;2023-02-12T05:22:20;13.00;;;7.67;;
12756;SDS011;31601;48.042;12.240;2023-02-12T05:24:48;9.87;;;7.90;;
12756;SDS011;31601;48.042;12.240;2023-02-12T05:27:14;11.30;;;8.00;;
12756;SDS011;31601;48.042;12.240;2023-02-12T05:29:40;12.40;;;7.60;;
12756;SDS011;31601;48.042;12.240;2023-02-12T05:32:07;11.27;;;7.67;;
12756;SDS011;31601;48.042;12.240;2023-02-12T05:34:34;8.63;;;6.90;;
12756;SDS011;31601;48.042;12.240;2023-02-12T05:37:00;12.03;;;8.40;;
12756;SDS011;31601;48.042;12.240;2023-02-12T05:39:26;9.33;;;7.30;;
12756;SDS011;31601;48.042;12.240;2023-02-12T05:41:54;10.77;;;7.67;;
12756;SDS011;31601;48.042;12.240;2023-02-12T05:44:21;11.10;;;7.77;;
12756;SDS011;31601;48.042;12.240;2023-02-12T05:46:47;10.40;;;7.53;;
12756;SDS011;31601;48.042;12.240;2023-02-12T05:49:14;11.83;;;7.67;;
12756;SDS011;31601;48.042;12.240;2023-02-12T05:51:40;10.20;;;7.30;;
12756;SDS011;31601;48.042;12.240;2023-02-12T05:54:07;11.33;;;7.27;;
12756;SDS011;31601;48.042;12.240;2023-02-12T05:56:34;11.50;;;7.57;;
12756;SDS011;31601;48.042;12.240;2023-02-12T05:59:04;12.67;;;8.00;;
12756;SDS011;31601;48.042;12.240;2023-02-12T06:01:33;11.10;;;8.03;;
12756;SDS011;31601;48.042;12.240;2023-02-12T06:04:01;11.03;;;7.83;;
12756;SDS011;31601;48.042;12.240;2023-02-12T06:06:29;10.80;;;7.43;;
12756;SDS011;31601;48.042;12.240;2023-02-12T06:08:56;12.40;;;7.30;;
12756;SDS011;31601;48.042;12.240;2023-02-12T06:11:23;11.70;;;7.87;;
12756;SDS011;31601;48.042;12.240;2023-02-12T06:13:50;16.70;;;10.57;;
12756;SDS011;31601;48.042;12.240;2023-02-12T06:16:19;16.47;;;9.33;;
12756;SDS011;31601;48.042;12.240;2023-02-12T06:18:47;10.43;;;8.30;;
12756;SDS011;31601;48.042;12.240;2023-02-12T06:21:14;13.17;;;8.50;;
12756;SDS011;31601;48.042;12.240;2023-02-12T06:23:40;14.17;;;8.83;;
12756;SDS011;31601;48.042;12.240;2023-02-12T06:26:07;12.63;;;9.20;;
12756;SDS011;31601;48.042;12.240;2023-02-12T06:28:34;12.07;;;7.73;;
12756;SDS011;31601;48.042;12.240;2023-02-12T06:31:00;12.67;;;8.83;;
12756;SDS011;31601;48.042;12.240;2023-02-12T06:33:28;15.70;;;8.83;;
12756;SDS011;31601;48.042;12.240;2023-02-12T06:35:55;12.33;;;9.03;;
12756;SDS011;31601;48.042;12.240;2023-02-12T06:38:21;12.63;;;8.60;;
12756;SDS011;31601;48.042;12.240;2023-02-12T06:40:48;12.20;;;8.73;;
12756;SDS011;31601;48.042;12.240;2023-02-12T06:43:14;13.63;;;8.57;;
12756;SDS011;31601;48.042;12.240;2023-02-12T06:45:41;13.10;;;8.23;;
12756;SDS011;31601;48.042;12.240;2023-02-12T06:48:07;15.80;;;8.93;;
12756;SDS011;31601;48.042;12.240;2023-02-12T06:50:35;12.83;;;9.30;;
12756;SDS011;31601;48.042;12.240;2023-02-12T06:53:01;11.53;;;8.10;;
12756;SDS011;31601;48.042;12.240;2023-02-12T06:55:28;11.70;;;8.77;;
12756;SDS011;31601;48.042;12.240;2023-02-12T06:57:54;15.83;;;8.83;;
12756;SDS011;31601;48.042;12.240;2023-02-12T07:00:21;16.17;;;9.23;;
12756;SDS011;31601;48.042;12.240;2023-02-12T07:02:51;15.73;;;8.83;;
12756;SDS011;31601;48.042;12.240;2023-02-12T07:05:18;15.03;;;8.40;;
12756;SDS011;31601;48.042;12.240;2023-02-12T07:07:46;12.03;;;9.10;;
12756;SDS011;31601;48.042;12.240;2023-02-12T07:10:13;12.57;;;8.80;;
12756;SDS011;31601;48.042;12.240;2023-02-12T07:12:40;16.23;;;12.83;;
12756;SDS011;31601;48.042;12.240;2023-02-12T07:15:06;17.73;;;11.87;;
12756;SDS011;31601;48.042;12.240;2023-02-12T07:17:33;12.67;;;9.50;;
12756;SDS011;31601;48.042;12.240;2023-02-12T07:20:00;12.93;;;9.33;;
12756;SDS011;31601;48.042;12.240;2023-02-12T07:22:26;11.63;;;8.43;;
12756;SDS011;31601;48.042;12.240;2023-02-12T07:24:55;20.37;;;11.03;;
12756;SDS011;31601;48.042;12.240;2023-02-12T07:27:21;13.80;;;10.37;;
12756;SDS011;31601;48.042;12.240;2023-02-12T07:29:48;15.13;;;10.80;;
12756;SDS011;31601;48.042;12.240;2023-02-12T07:32:14;14.80;;;10.40;;
12756;SDS011;31601;48.042;12.240;2023-02-12T07:34:41;12.60;;;9.67;;
12756;SDS011;31601;48.042;12.240;2023-02-12T07:37:07;12.30;;;9.20;;
12756;SDS011;31601;48.042;12.240;2023-02-12T07:39:34;11.93;;;8.77;;
12756;SDS011;31601;48.042;12.240;2023-02-12T07:42:02;12.87;;;8.73;;
12756;SDS011;31601;48.042;12.240;2023-02-12T07:44:28;13.17;;;9.50;;
12756;SDS011;31601;48.042;12.240;2023-02-12T07:46:58;14.50;;;9.20;;
12756;SDS011;31601;48.042;12.240;2023-02-12T07:49:24;12.87;;;9.57;;
12756;SDS011;31601;48.042;12.240;2023-02-12T07:51:51;13.83;;;8.80;;
12756;SDS011;31601;48.042;12.240;2023-02-12T07:54:19;15.20;;;9.87;;
12756;SDS011;31601;48.042;12.240;2023-02-12T07:56:46;17.10;;;11.73;;
12756;SDS011;31601;48.042;12.240;2023-02-12T07:59:15;16.57;;;12.00;;
12756;SDS011;31601;48.042;12.240;2023-02-12T08:01:44;13.50;;;10.07;;
12756;SDS011;31601;48.042;12.240;2023-02-12T08:04:13;20.57;;;10.50;;
12756;SDS011;31601;48.042;12.240;2023-02-12T08:06:41;19.17;;;9.77;;
12756;SDS011;31601;48.042;12.240;2023-02-12T08:09:11;10.67;;;8.33;;
12756;SDS011;31601;48.042;12.240;2023-02-12T08:11:39;13.50;;;8.83;;
12756;SDS011;31601;48.042;12.240;2023-02-12T08:14:06;12.37;;;9.47;;
12756;SDS011;31601;48.042;12.240;2023-02-12T08:16:36;14.27;;;8.70;;
12756;SDS011;31601;48.042;12.240;2023-02-12T08:19:07;13.30;;;9.57;;
12756;SDS011;31601;48.042;12.240;2023-02-12T08:21:33;14.33;;;8.73;;
12756;SDS011;31601;48.042;12.240;2023-02-12T08:24:00;15.07;;;9.10;;
12756;SDS011;31601;48.042;12.240;2023-02-12T08:26:27;14.17;;;9.33;;
12756;SDS011;31601;48.042;12.240;2023-02-12T08:28:58;13.83;;;9.23;;
12756;SDS011;31601;48.042;12.240;2023-02-12T08:31:27;12.70;;;8.77;;
12756;SDS011;31601;48.042;12.240;2023-02-12T08:33:57;14.20;;;9.63;;
12756;SDS011;31601;48.042;12.240;2023-02-12T08:36:24;14.53;;;9.53;;
12756;SDS011;31601;48.042;12.240;2023-02-12T08:38:52;17.80;;;9.93;;
12756;SDS011;31601;48.042;12.240;2023-02-12T08:41:20;13.47;;;10.50;;
12756;SDS011;31601;48.042;12.240;2023-02-12T08:43:48;14.63;;;10.37;;
12756;SDS011;31601;48.042;12.240;2023-02-12T08:46:15;18.37;;;10.53;;
12756;SDS011;31601;48.042;12.240;2023-02-12T08:48:44;14.10;;;9.77;;
12756;SDS011;31601;48.042;12.240;2023-02-12T08:51:12;17.97;;;10.30;;
12756;SDS011;31601;48.042;12.240;2023-02-12T08:53:41;16.73;;;11.97;;
12756;SDS011;31601;48.042;12.240;2023-02-12T08:56:10;18.63;;;12.83;;
12756;SDS011;31601;48.042;12.240;2023-02-12T08:58:38;16.50;;;12.20;;
12756;SDS011;31601;48.042;12.240;2023-02-12T09:01:08;20.07;;;13.67;;
12756;SDS011;31601;48.042;12.240;2023-02-12T09:03:35;21.00;;;14.03;;
12756;SDS011;31601;48.042;12.240;2023-02-12T09:06:05;19.73;;;14.03;;
12756;SDS011;31601;48.042;12.240;2023-02-12T09:08:34;19.40;;;13.80;;
12756;SDS011;31601;48.042;12.240;2023-02-12T09:11:03;20.17;;;14.53;;
12756;SDS011;31601;48.042;12.240;2023-02-12T09:13:31;24.10;;;14.73;;
12756;SDS011;31601;48.042;12.240;2023-02-12T09:15:59;19.73;;;14.83;;
12756;SDS011;31601;48.042;12.240;2023-02-12T09:18:27;21.30;;;13.60;;
12756;SDS011;31601;48.042;12.240;2023-02-12T09:20:54;18.60;;;13.17;;
12756;SDS011;31601;48.042;12.240;2023-02-12T09:23:25;16.33;;;13.13;;
12756;SDS011;31601;48.042;12.240;2023-02-12T09:25:53;20.93;;;14.53;;
12756;SDS011;31601;48.042;12.240;2023-02-12T09:28:19;20.27;;;14.83;;
12756;SDS011;31601;48.042;12.240;2023-02-12T09:30:46;19.37;;;14.00;;
12756;SDS011;31601;48.042;12.240;2023-02-12T09:33:12;19.00;;;15.07;;
12756;SDS011;31601;48.042;12.240;2023-02-12T09:35:39;22.57;;;15.73;;
12756;SDS011;31601;48.042;12.240;2023-02-12T09:38:06;20.20;;;14.53;;
12756;SDS011;31601;48.042;12.240;2023-02-12T09:40:34;22.80;;;14.90;;
12756;SDS011;31601;48.042;12.240;2023-02-12T09:43:13;24.27;;;13.83;;
12756;SDS011;31601;48.042;12.240;2023-02-12T09:45:43;17.93;;;12.90;;
12756;SDS011;31601;48.042;12.240;2023-02-12T09:51:04;16.23;;;11.97;;
12756;SDS011;31601;48.042;12.240;2023-02-12T09:53:34;16.17;;;11.57;;
12756;SDS011;31601;48.042;12.240;2023-02-12T09:56:05;15.33;;;10.03;;
12756;SDS011;31601;48.042;12.240;2023-02-12T09:58:40;11.70;;;9.43;;
12756;SDS011;31601;48.042;12.240;2023-02-12T10:01:11;15.23;;;11.27;;
12756;SDS011;31601;48.042;12.240;2023-02-12T10:03:39;11.67;;;9.27;;
12756;SDS011;31601;48.042;12.240;2023-02-12T10:06:06;11.20;;;8.03;;
12756;SDS011;31601;48.042;12.240;2023-02-12T10:11:48;10.23;;;6.93;;
12756;SDS011;31601;48.042;12.240;2023-02-12T10:17:32;8.33;;;5.00;;
12756;SDS011;31601;48.042;12.240;2023-02-12T10:20:14;10.17;;;5.83;;
12756;SDS011;31601;48.042;12.240;2023-02-12T10:22:59;7.60;;;4.37;;
12756;SDS011;31601;48.042;12.240;2023-02-12T10:25:40;5.37;;;4.57;;
12756;SDS011;31601;48.042;12.240;2023-02-12T10:28:14;6.27;;;3.27;;
12756;SDS011;31601;48.042;12.240;2023-02-12T10:30:43;6.50;;;5.10;;
12756;SDS011;31601;48.042;12.240;2023-02-12T10:33:17;6.53;;;5.00;;
12756;SDS011;31601;48.042;12.240;2023-02-12T10:35:50;11.33;;;9.50;;
12756;SDS011;31601;48.042;12.240;2023-02-12T10:38:21;9.80;;;7.40;;
12756;SDS011;31601;48.042;12.240;2023-02-12T10:40:53;8.63;;;6.50;;
12756;SDS011;31601;48.042;12.240;2023-02-12T10:43:22;3.47;;;2.70;;
12756;SDS011;31601;48.042;12.240;2023-02-12T10:45:49;5.37;;;4.00;;
12756;SDS011;31601;48.042;12.240;2023-02-12T10:48:18;5.93;;;5.33;;
12756;SDS011;31601;48.042;12.240;2023-02-12T10:53:38;4.67;;;4.20;;
12756;SDS011;31601;48.042;12.240;2023-02-12T10:56:11;4.27;;;2.80;;
12756;SDS011;31601;48.042;12.240;2023-02-12T10:58:42;3.30;;;2.70;;
12756;SDS011;31601;48.042;12.240;2023-02-12T11:01:19;3.90;;;2.70;;
12756;SDS011;31601;48.042;12.240;2023-02-12T11:03:51;8.93;;;5.53;;
12756;SDS011;31601;48.042;12.240;2023-02-12T11:06:18;5.60;;;4.17;;
12756;SDS011;31601;48.042;12.240;2023-02-12T11:08:46;5.33;;;4.27;;
12756;SDS011;31601;48.042;12.240;2023-02-12T11:11:14;5.53;;;4.30;;
12756;SDS011;31601;48.042;12.240;2023-02-12T11:13:45;6.47;;;4.87;;
12756;SDS011;31601;48.042;12.240;2023-02-12T11:16:25;10.70;;;5.90;;
12756;SDS011;31601;48.042;12.240;2023-02-12T11:18:57;9.00;;;6.80;;
12756;SDS011;31601;48.042;12.240;2023-02-12T11:21:25;6.37;;;4.50;;
12756;SDS011;31601;48.042;12.240;2023-02-12T11:23:52;4.40;;;3.50;;
12756;SDS011;31601;48.042;12.240;2023-02-12T11:26:22;5.70;;;4.13;;
12756;SDS011;31601;48.042;12.240;2023-02-12T11:28:52;6.23;;;3.73;;
12756;SDS011;31601;48.042;12.240;2023-02-12T11:31:21;4.60;;;3.73;;
12756;SDS011;31601;48.042;12.240;2023-02-12T11:34:05;4.10;;;3.30;;
12756;SDS011;31601;48.042;12.240;2023-02-12T11:36:34;4.93;;;3.70;;
12756;SDS011;31601;48.042;12.240;2023-02-12T11:39:02;6.40;;;4.97;;
12756;SDS011;31601;48.042;12.240;2023-02-12T11:41:32;5.13;;;3.97;;
12756;SDS011;31601;48.042;12.240;2023-02-12T11:44:01;6.20;;;5.27;;
12756;SDS011;31601;48.042;12.240;2023-02-12T11:46:34;5.10;;;3.87;;
12756;SDS011;31601;48.042;12.240;2023-02-12T11:49:02;5.43;;;3.77;;
12756;SDS011;31601;48.042;12.240;2023-02-12T11:51:33;4.93;;;3.70;;
12756;SDS011;31601;48.042;12.240;2023-02-12T11:54:02;6.67;;;3.77;;
12756;SDS011;31601;48.042;12.240;2023-02-12T11:56:39;4.50;;;3.70;;
12756;SDS011;31601;48.042;12.240;2023-02-12T11:59:16;3.47;;;3.17;;
12756;SDS011;31601;48.042;12.240;2023-02-12T12:01:52;3.90;;;2.80;;
12756;SDS011;31601;48.042;12.240;2023-02-12T12:04:23;12.23;;;3.57;;
12756;SDS011;31601;48.042;12.240;2023-02-12T12:06:54;4.93;;;3.60;;
12756;SDS011;31601;48.042;12.240;2023-02-12T12:09:26;4.70;;;3.70;;
12756;SDS011;31601;48.042;12.240;2023-02-12T12:12:01;4.83;;;3.90;;
12756;SDS011;31601;48.042;12.240;2023-02-12T12:14:36;4.20;;;3.10;;
12756;SDS011;31601;48.042;12.240;2023-02-12T12:17:23;4.77;;;3.50;;
12756;SDS011;31601;48.042;12.240;2023-02-12T12:20:13;4.13;;;3.37;;
12756;SDS011;31601;48.042;12.240;2023-02-12T12:22:46;6.07;;;3.70;;
12756;SDS011;31601;48.042;12.240;2023-02-12T12:25:20;4.90;;;3.60;;
12756;SDS011;31601;48.042;12.240;2023-02-12T12:27:53;6.90;;;4.50;;
12756;SDS011;31601;48.042;12.240;2023-02-12T12:30:40;5.33;;;4.00;;
12756;SDS011;31601;48.042;12.240;2023-02-12T12:33:15;4.87;;;4.03;;
12756;SDS011;31601;48.042;12.240;2023-02-12T12:35:51;5.97;;;3.80;;
12756;SDS011;31601;48.042;12.240;2023-02-12T12:38:28;5.67;;;3.73;;
12756;SDS011;31601;48.042;12.240;2023-02-12T12:41:10;4.27;;;3.57;;
12756;SDS011;31601;48.042;12.240;2023-02-12T12:43:48;5.47;;;3.80;;
12756;SDS011;31601;48.042;12.240;2023-02-12T12:46:24;5.37;;;3.73;;
12756;SDS011;31601;48.042;12.240;2023-02-12T12:49:05;5.43;;;4.23;;
12756;SDS011;31601;48.042;12.240;2023-02-12T12:51:57;5.73;;;4.13;;
12756;SDS011;31601;48.042;12.240;2023-02-12T12:54:49;5.27;;;4.23;;
12756;SDS011;31601;48.042;12.240;2023-02-12T12:57:30;5.47;;;4.27;;
12756;SDS011;31601;48.042;12.240;2023-02-12T13:00:13;6.97;;;5.27;;
12756;SDS011;31601;48.042;12.240;2023-02-12T13:03:10;6.00;;;4.43;;
12756;SDS011;31601;48.042;12.240;2023-02-12T13:06:11;6.10;;;4.40;;
12756;SDS011;31601;48.042;12.240;2023-02-12T13:08:57;6.13;;;4.10;;
12756;SDS011;31601;48.042;12.240;2023-02-12T13:11:38;8.50;;;6.33;;
12756;SDS011;31601;48.042;12.240;2023-02-12T13:14:16;7.53;;;6.07;;
12756;SDS011;31601;48.042;12.240;2023-02-12T13:16:54;9.93;;;6.10;;
12756;SDS011;31601;48.042;12.240;2023-02-12T13:19:33;7.70;;;5.97;;
12756;SDS011;31601;48.042;12.240;2023-02-12T13:22:07;7.30;;;5.73;;
12756;SDS011;31601;48.042;12.240;2023-02-12T13:24:42;7.53;;;5.77;;
12756;SDS011;31601;48.042;12.240;2023-02-12T13:27:13;10.87;;;8.47;;
12756;SDS011;31601;48.042;12.240;2023-02-12T13:29:42;11.20;;;9.33;;
12756;SDS011;31601;48.042;12.240;2023-02-12T13:32:12;12.13;;;9.10;;
12756;SDS011;31601;48.042;12.240;2023-02-12T13:34:45;13.63;;;9.57;;
12756;SDS011;31601;48.042;12.240;2023-02-12T13:37:14;14.00;;;8.87;;
12756;SDS011;31601;48.042;12.240;2023-02-12T13:39:46;13.27;;;9.23;;
12756;SDS011;31601;48.042;12.240;2023-02-12T13:42:19;10.83;;;7.73;;
12756;SDS011;31601;48.042;12.240;2023-02-12T13:44:56;11.90;;;7.93;;
12756;SDS011;31601;48.042;12.240;2023-02-12T13:47:28;10.47;;;7.60;;
12756;SDS011;31601;48.042;12.240;2023-02-12T13:50:02;14.67;;;9.67;;
12756;SDS011;31601;48.042;12.240;2023-02-12T13:52:46;15.03;;;11.17;;
12756;SDS011;31601;48.042;12.240;2023-02-12T13:55:22;13.90;;;10.47;;
12756;SDS011;31601;48.042;12.240;2023-02-12T14:00:59;14.17;;;9.87;;
12756;SDS011;31601;48.042;12.240;2023-02-12T14:03:26;14.20;;;10.27;;
12756;SDS011;31601;48.042;12.240;2023-02-12T14:06:10;13.70;;;9.93;;
12756;SDS011;31601;48.042;12.240;2023-02-12T14:08:40;14.67;;;9.67;;
12756;SDS011;31601;48.042;12.240;2023-02-12T14:11:10;15.20;;;8.87;;
12756;SDS011;31601;48.042;12.240;2023-02-12T14:13:48;12.27;;;9.30;;
12756;SDS011;31601;48.042;12.240;2023-02-12T14:16:22;11.97;;;8.50;;
12756;SDS011;31601;48.042;12.240;2023-02-12T14:22:09;8.13;;;6.70;;
12756;SDS011;31601;48.042;12.240;2023-02-12T14:27:32;11.80;;;8.10;;
12756;SDS011;31601;48.042;12.240;2023-02-12T14:30:27;10.93;;;8.00;;
12756;SDS011;31601;48.042;12.240;2023-02-12T14:32:56;9.60;;;7.27;;
12756;SDS011;31601;48.042;12.240;2023-02-12T14:35:31;12.80;;;9.60;;
12756;SDS011;31601;48.042;12.240;2023-02-12T14:38:00;10.37;;;7.63;;
12756;SDS011;31601;48.042;12.240;2023-02-12T14:40:38;11.07;;;8.17;;
12756;SDS011;31601;48.042;12.240;2023-02-12T14:43:24;9.80;;;7.13;;
12756;SDS011;31601;48.042;12.240;2023-02-12T14:45:54;16.10;;;8.67;;
12756;SDS011;31601;48.042;12.240;2023-02-12T14:48:38;10.27;;;7.37;;
12756;SDS011;31601;48.042;12.240;2023-02-12T14:51:13;11.10;;;7.37;;
12756;SDS011;31601;48.042;12.240;2023-02-12T14:53:42;9.60;;;7.17;;
12756;SDS011;31601;48.042;12.240;2023-02-12T14:56:11;9.70;;;7.60;;
12756;SDS011;31601;48.042;12.240;2023-02-12T14:58:40;9.17;;;6.93;;
12756;SDS011;31601;48.042;12.240;2023-02-12T15:01:10;8.83;;;6.63;;
12756;SDS011;31601;48.042;12.240;2023-02-12T15:03:39;10.60;;;7.43;;
12756;SDS011;31601;48.042;12.240;2023-02-12T15:06:09;12.93;;;9.33;;
12756;SDS011;31601;48.042;12.240;2023-02-12T15:08:45;12.43;;;8.93;;